Time;durP1;ratioP1;P1;durP2;ratioP2;P2;SDS_P1;SDS_P2;PMS_P1;PMS_P2;Temp;Humidity;BMP_temperature;BMP_pressure;BME280_temperature;BME280_humidity;BME280_pressure;Samples;Min_cycle;Max_cycle;Signal;HPM_P1;HPM_P2
2022/07/23 00:00:46;;;;;;;7.50;6.80;;;19.90;1.00;;;;;;6352479;22;20980;-78
2022/07/23 00:03:15;;;;;;;8.90;7.00;;;19.90;1.00;;;;;;6353326;22;20415;-78
2022/07/23 00:05:41;;;;;;;8.27;7.47;;;19.90;1.00;;;;;;6349522;22;20508;-77
2022/07/23 00:08:13;;;;;;;16.47;14.87;;;19.90;1.00;;;;;;6335930;22;20505;-79
2022/07/23 00:10:53;;;;;;;7.57;6.87;;;20.00;1.00;;;;;;6357754;22;20975;-83
2022/07/23 00:13:20;;;;;;;10.13;9.03;;;19.90;1.00;;;;;;6349029;22;20938;-79
2022/07/23 00:15:56;;;;;;;9.30;8.40;;;19.90;1.00;;;;;;6351177;22;20424;-78
2022/07/23 00:18:23;;;;;;;8.77;7.87;;;19.90;1.00;;;;;;6332977;22;20504;-80
2022/07/23 00:20:50;;;;;;;7.73;7.03;;;19.80;1.00;;;;;;6353451;22;20852;-77
2022/07/23 00:23:24;;;;;;;9.17;8.10;;;19.80;1.00;;;;;;6354044;22;20777;-78
2022/07/23 00:25:53;;;;;;;7.90;7.20;;;19.80;1.00;;;;;;6355229;22;20517;-79
2022/07/23 00:28:23;;;;;;;9.20;8.30;;;19.80;1.00;;;;;;6360015;22;20440;-83
2022/07/23 00:30:50;;;;;;;8.43;7.63;;;19.80;1.00;;;;;;6356005;22;20603;-76
2022/07/23 00:33:22;;;;;;;8.10;7.30;;;19.70;1.00;;;;;;6354276;22;20417;-81
2022/07/23 00:35:48;;;;;;;9.10;7.50;;;19.70;1.00;;;;;;6350979;22;20827;-80
2022/07/23 00:38:17;;;;;;;9.90;7.87;;;19.70;1.00;;;;;;6347329;22;20421;-79
2022/07/23 00:40:43;;;;;;;7.47;6.77;;;19.70;1.00;;;;;;6349562;22;20416;-78
2022/07/23 00:43:12;;;;;;;8.40;7.60;;;19.70;1.00;;;;;;6349130;22;20510;-79
2022/07/23 00:45:38;;;;;;;7.40;6.70;;;19.80;1.00;;;;;;6350928;22;20822;-79
2022/07/23 00:48:07;;;;;;;7.40;6.70;;;19.80;1.00;;;;;;6348686;22;20465;-79
2022/07/23 00:50:34;;;;;;;8.20;7.00;;;19.80;1.00;;;;;;6349473;22;20401;-78
2022/07/23 00:53:01;;;;;;;9.60;6.93;;;19.80;1.00;;;;;;6348014;22;20414;-78
2022/07/23 00:55:28;;;;;;;8.53;7.03;;;19.70;1.00;;;;;;6350040;22;20879;-78
2022/07/23 00:57:56;;;;;;;7.87;6.97;;;19.70;1.00;;;;;;6349414;22;20433;-79
2022/07/23 01:00:24;;;;;;;7.30;6.47;;;19.70;1.00;;;;;;6349710;22;20445;-80
2022/07/23 01:02:53;;;;;;;9.00;7.03;;;19.70;1.00;;;;;;6349676;22;20978;-80
2022/07/23 01:05:21;;;;;;;7.50;6.40;;;19.70;1.00;;;;;;6346897;22;20752;-80
2022/07/23 01:07:49;;;;;;;9.73;6.67;;;19.70;1.00;;;;;;6350060;22;20400;-80
2022/07/23 01:10:34;;;;;;;7.10;6.27;;;19.70;1.00;;;;;;6348508;22;20904;-80
2022/07/23 01:13:03;;;;;;;10.23;7.50;;;19.80;1.00;;;;;;6348391;22;20496;-80
2022/07/23 01:15:32;;;;;;;7.30;6.60;;;19.80;1.00;;;;;;6349582;22;20453;-80
2022/07/23 01:17:59;;;;;;;7.90;7.20;;;19.90;1.00;;;;;;6348874;22;20461;-80
2022/07/23 01:20:27;;;;;;;8.93;7.57;;;19.90;1.00;;;;;;6349449;22;20455;-79
2022/07/23 01:22:58;;;;;;;9.40;7.13;;;19.90;1.00;;;;;;6347828;22;20418;-80
2022/07/23 01:25:25;;;;;;;8.37;7.57;;;19.80;1.00;;;;;;6349022;22;20758;-80
2022/07/23 01:27:54;;;;;;;8.60;7.73;;;19.80;1.00;;;;;;6348742;22;20438;-80
2022/07/23 01:30:21;;;;;;;9.63;7.00;;;19.70;1.00;;;;;;6348443;22;20449;-79
2022/07/23 01:32:48;;;;;;;7.10;6.20;;;19.60;1.00;;;;;;6351262;22;20393;-78
2022/07/23 01:35:15;;;;;;;8.30;7.03;;;19.50;1.00;;;;;;6333589;22;20846;-80
2022/07/23 01:37:42;;;;;;;8.83;7.90;;;19.50;1.00;;;;;;6354500;22;20406;-77
2022/07/23 01:40:15;;;;;;;8.30;6.93;;;19.40;1.00;;;;;;6353739;22;20409;-82
2022/07/23 01:42:42;;;;;;;7.53;6.67;;;19.40;1.00;;;;;;6353557;22;20404;-81
2022/07/23 01:45:14;;;;;;;8.83;7.90;;;19.30;1.00;;;;;;6353305;22;20450;-77
2022/07/23 01:47:41;;;;;;;8.97;7.97;;;19.30;1.00;;;;;;6356686;22;20416;-82
2022/07/23 01:50:13;;;;;;;8.03;7.23;;;19.30;1.00;;;;;;6312647;22;20475;-78
2022/07/23 01:52:40;;;;;;;9.00;8.10;;;19.20;1.00;;;;;;6354890;22;20506;-79
2022/07/23 01:55:13;;;;;;;8.70;7.70;;;19.20;1.00;;;;;;6351696;22;20527;-80
2022/07/23 01:57:41;;;;;;;9.03;8.23;;;19.20;1.00;;;;;;6353317;22;20495;-82
2022/07/23 02:00:13;;;;;;;10.23;7.20;;;19.20;1.00;;;;;;6353114;22;20460;-80
2022/07/23 02:02:40;;;;;;;8.37;7.60;;;19.20;1.00;;;;;;6355158;22;20417;-80
2022/07/23 02:05:13;;;;;;;8.90;7.87;;;19.20;1.00;;;;;;6322962;22;20428;-78
2022/07/23 02:07:40;;;;;;;8.90;8.00;;;19.20;1.00;;;;;;6352546;22;20528;-80
2022/07/23 02:10:12;;;;;;;8.70;7.80;;;19.20;1.00;;;;;;6329762;22;20877;-77
2022/07/23 02:12:39;;;;;;;8.20;7.40;;;19.30;1.00;;;;;;6353530;22;20425;-79
2022/07/23 02:15:13;;;;;;;10.93;7.73;;;19.20;1.00;;;;;;6351767;22;20416;-79
2022/07/23 02:17:41;;;;;;;7.27;6.57;;;19.20;1.00;;;;;;6354063;22;20427;-77
2022/07/23 02:20:14;;;;;;;8.50;7.17;;;19.20;1.00;;;;;;6335371;22;20408;-80
2022/07/23 02:22:41;;;;;;;10.13;7.37;;;19.20;1.00;;;;;;6324435;22;20412;-77
2022/07/23 02:25:13;;;;;;;8.80;7.90;;;19.20;1.00;;;;;;6347746;22;20889;-79
2022/07/23 02:27:40;;;;;;;8.50;6.87;;;19.20;1.00;;;;;;6352709;22;20432;-79
2022/07/23 02:30:13;;;;;;;8.20;7.07;;;19.30;1.00;;;;;;6337597;22;20448;-82
2022/07/23 02:32:42;;;;;;;7.60;6.90;;;19.20;1.00;;;;;;6326217;22;20447;-78
2022/07/23 02:35:13;;;;;;;7.97;6.80;;;19.20;1.00;;;;;;6352146;22;20428;-80
2022/07/23 02:37:40;;;;;;;7.37;6.57;;;19.20;1.00;;;;;;6341709;22;20428;-80
2022/07/23 02:40:13;;;;;;;7.70;6.77;;;19.20;1.00;;;;;;6355439;22;20968;-82
2022/07/23 02:42:40;;;;;;;7.70;6.77;;;19.20;1.00;;;;;;6357636;22;20417;-79
2022/07/23 02:45:15;;;;;;;8.13;7.30;;;19.10;1.00;;;;;;6339548;22;20422;-79
2022/07/23 02:47:42;;;;;;;8.03;7.10;;;19.10;1.00;;;;;;6351443;22;21190;-76
2022/07/23 02:50:14;;;;;;;9.13;7.67;;;19.10;1.00;;;;;;6357447;22;20427;-79
2022/07/23 02:52:41;;;;;;;8.10;7.37;;;19.10;1.00;;;;;;6354765;22;20419;-79
2022/07/23 02:55:13;;;;;;;10.17;6.47;;;19.10;1.00;;;;;;6352706;22;20445;-76
2022/07/23 02:57:40;;;;;;;7.90;7.10;;;19.00;1.00;;;;;;6352579;22;20471;-75
2022/07/23 03:00:13;;;;;;;9.30;7.40;;;19.00;1.00;;;;;;6352120;22;20463;-76
2022/07/23 03:02:40;;;;;;;7.43;6.73;;;19.00;1.00;;;;;;6346479;22;20555;-82
2022/07/23 03:05:13;;;;;;;8.00;7.20;;;18.90;1.00;;;;;;6354495;22;20437;-82
2022/07/23 03:07:40;;;;;;;8.57;7.50;;;18.80;1.00;;;;;;6326738;22;20397;-83
2022/07/23 03:10:12;;;;;;;8.83;7.10;;;18.70;1.00;;;;;;6357110;22;20583;-78
2022/07/23 03:12:39;;;;;;;9.77;7.43;;;18.80;1.00;;;;;;6335523;22;20789;-77
2022/07/23 03:15:12;;;;;;;8.50;7.60;;;18.80;1.00;;;;;;6350886;22;20456;-78
2022/07/23 03:17:40;;;;;;;9.17;7.60;;;18.80;1.00;;;;;;6349733;22;20470;-84
2022/07/23 03:20:14;;;;;;;7.20;6.43;;;18.70;1.00;;;;;;6358272;22;20414;-82
2022/07/23 03:22:41;;;;;;;8.20;7.40;;;18.70;1.00;;;;;;6351461;22;20445;-82
2022/07/23 03:25:13;;;;;;;8.40;7.57;;;18.70;1.00;;;;;;6337241;22;20393;-76
2022/07/23 03:27:40;;;;;;;7.73;7.03;;;18.70;1.00;;;;;;6335131;22;20488;-77
2022/07/23 03:30:12;;;;;;;13.60;8.70;;;18.60;1.00;;;;;;6351263;22;20409;-79
2022/07/23 03:32:42;;;;;;;8.83;7.93;;;18.60;1.00;;;;;;6349375;22;20452;-80
2022/07/23 03:35:14;;;;;;;8.93;7.40;;;18.60;1.00;;;;;;6346813;22;20381;-79
2022/07/23 03:37:41;;;;;;;9.97;9.00;;;18.60;1.00;;;;;;6347062;22;20453;-76
2022/07/23 03:40:13;;;;;;;8.80;8.00;;;18.50;1.00;;;;;;6350840;22;20460;-77
2022/07/23 03:42:42;;;;;;;8.83;7.93;;;18.50;1.00;;;;;;6343089;22;20409;-82
2022/07/23 03:45:13;;;;;;;9.23;8.33;;;18.50;1.00;;;;;;6355517;22;20487;-79
2022/07/23 03:47:43;;;;;;;7.90;7.10;;;18.60;1.00;;;;;;6352557;22;20913;-79
2022/07/23 03:50:11;;;;;;;9.40;8.50;;;18.50;1.00;;;;;;6330693;22;20397;-79
2022/07/23 03:52:38;;;;;;;8.53;7.73;;;18.50;1.00;;;;;;6339838;22;20437;-77
2022/07/23 03:55:05;;;;;;;9.17;8.17;;;18.60;1.00;;;;;;6353730;22;20433;-80
2022/07/23 03:57:34;;;;;;;8.80;7.70;;;18.50;1.00;;;;;;6338631;22;20397;-79
2022/07/23 04:00:01;;;;;;;8.73;7.77;;;18.50;1.00;;;;;;6330711;22;20381;-77
2022/07/23 04:02:33;;;;;;;7.10;6.40;;;18.50;1.00;;;;;;6348823;22;20425;-79
2022/07/23 04:05:02;;;;;;;9.00;6.57;;;18.40;1.00;;;;;;6350044;22;20425;-78
2022/07/23 04:07:34;;;;;;;7.70;6.20;;;18.30;1.00;;;;;;6353174;22;20417;-77
2022/07/23 04:10:00;;;;;;;11.60;7.30;;;18.30;1.00;;;;;;6350972;22;20433;-81
2022/07/23 04:12:28;;;;;;;9.13;6.80;;;18.20;1.00;;;;;;6347098;22;20417;-78
2022/07/23 04:14:55;;;;;;;10.10;9.27;;;18.20;1.00;;;;;;6344931;22;20826;-81
2022/07/23 04:17:22;;;;;;;7.47;6.77;;;18.30;1.00;;;;;;6354321;22;20927;-79
2022/07/23 04:19:53;;;;;;;7.00;5.57;;;18.30;1.00;;;;;;6351922;22;20392;-80
2022/07/23 04:22:21;;;;;;;8.80;6.10;;;18.30;1.00;;;;;;6353149;22;20494;-78
2022/07/23 04:24:54;;;;;;;6.83;5.70;;;18.30;1.00;;;;;;6344448;22;20433;-76
2022/07/23 04:27:21;;;;;;;8.23;5.90;;;18.20;1.00;;;;;;6353406;22;20417;-79
2022/07/23 04:29:56;;;;;;;9.67;6.00;;;18.10;1.00;;;;;;6350805;22;20459;-82
2022/07/23 04:32:23;;;;;;;7.33;5.83;;;18.10;1.00;;;;;;6313821;22;20389;-83
2022/07/23 04:34:54;;;;;;;7.50;5.50;;;18.10;1.00;;;;;;6362406;22;20464;-82
2022/07/23 04:37:22;;;;;;;6.10;4.40;;;18.10;1.00;;;;;;6345814;22;20421;-80
2022/07/23 04:39:54;;;;;;;6.30;4.93;;;18.10;1.00;;;;;;6350592;22;20709;-79
2022/07/23 04:42:22;;;;;;;8.30;4.20;;;18.10;1.00;;;;;;6357698;22;20844;-80
2022/07/23 04:44:53;;;;;;;7.90;5.17;;;18.10;1.00;;;;;;6354197;22;20599;-79
2022/07/23 04:47:20;;;;;;;11.70;6.43;;;18.10;1.00;;;;;;6311480;22;20425;-79
2022/07/23 04:49:47;;;;;;;6.90;5.20;;;18.00;1.00;;;;;;6354464;22;20417;-80
2022/07/23 04:52:15;;;;;;;8.73;5.93;;;17.90;1.00;;;;;;6342652;22;20489;-77
2022/07/23 04:54:44;;;;;;;9.77;5.70;;;17.60;1.00;;;;;;6355066;22;20417;-76
2022/07/23 04:57:17;;;;;;;7.93;6.10;;;17.40;1.00;;;;;;6354976;22;20472;-79
2022/07/23 04:59:43;;;;;;;8.23;5.80;;;17.10;1.00;;;;;;6350282;22;20414;-79
2022/07/23 05:02:16;;;;;;;7.97;4.90;;;16.90;1.00;;;;;;6353480;22;20449;-81
2022/07/23 05:04:45;;;;;;;5.67;4.90;;;16.80;1.00;;;;;;6357760;22;20377;-81
2022/07/23 05:07:14;;;;;;;7.87;5.40;;;16.60;1.00;;;;;;6362483;22;20441;-80
2022/07/23 05:09:44;;;;;;;5.90;5.30;;;16.50;1.00;;;;;;6316639;22;20425;-79
2022/07/23 05:12:11;;;;;;;6.57;5.77;;;16.50;1.00;;;;;;6353152;22;22243;-78
2022/07/23 05:14:48;;;;;;;6.20;5.60;;;16.50;1.00;;;;;;6353822;22;20500;-77
2022/07/23 05:17:15;;;;;;;13.63;6.03;;;16.40;1.00;;;;;;6352592;22;20457;-77
2022/07/23 05:19:44;;;;;;;7.30;6.60;;;16.40;1.00;;;;;;6348982;22;20369;-80
2022/07/23 05:22:17;;;;;;;8.37;5.87;;;16.40;1.00;;;;;;6326896;22;20496;-79
2022/07/23 05:24:46;;;;;;;8.17;6.13;;;16.40;1.00;;;;;;6354401;22;20413;-76
2022/07/23 05:27:16;;;;;;;8.30;6.43;;;16.50;1.00;;;;;;6340460;22;20447;-79
2022/07/23 05:29:44;;;;;;;7.90;6.73;;;16.40;1.00;;;;;;6356317;22;20382;-80
2022/07/23 05:32:14;;;;;;;11.30;7.10;;;16.40;1.00;;;;;;6355868;22;20495;-80
2022/07/23 05:34:41;;;;;;;7.77;6.63;;;16.40;1.00;;;;;;6344549;22;20471;-79
2022/07/23 05:37:09;;;;;;;9.57;6.67;;;16.30;1.00;;;;;;6355241;22;20508;-78
2022/07/23 05:39:36;;;;;;;8.20;7.40;;;16.30;1.00;;;;;;6349994;22;20410;-78
2022/07/23 05:42:04;;;;;;;8.77;7.87;;;16.20;1.00;;;;;;6315723;22;20508;-79
2022/07/23 05:44:34;;;;;;;7.83;5.50;;;16.10;1.00;;;;;;6332790;22;20517;-80
2022/07/23 05:47:02;;;;;;;8.07;6.40;;;16.10;1.00;;;;;;6354377;22;20408;-78
2022/07/23 05:49:34;;;;;;;8.47;6.73;;;16.00;1.00;;;;;;6353068;22;20420;-75
2022/07/23 05:52:05;;;;;;;12.47;6.43;;;16.00;1.00;;;;;;6323393;22;20449;-77
2022/07/23 05:54:36;;;;;;;6.00;5.33;;;16.00;1.00;;;;;;6331441;22;20416;-79
2022/07/23 05:57:04;;;;;;;21.10;18.80;;;16.00;1.00;;;;;;6353127;22;20433;-78
2022/07/23 05:59:34;;;;;;;6.80;5.90;;;16.10;1.00;;;;;;6349337;22;21012;-79
2022/07/23 06:02:01;;;;;;;7.93;5.70;;;16.00;1.00;;;;;;6355763;22;20917;-81
2022/07/23 06:04:33;;;;;;;6.80;5.63;;;16.00;1.00;;;;;;6341272;22;20410;-81
2022/07/23 06:07:01;;;;;;;9.70;7.10;;;15.90;1.00;;;;;;6347059;22;21369;-81
2022/07/23 06:09:32;;;;;;;7.13;6.13;;;15.90;1.00;;;;;;6356795;22;20504;-79
2022/07/23 06:12:02;;;;;;;8.93;6.77;;;15.90;1.00;;;;;;6335460;22;20471;-82
2022/07/23 06:14:34;;;;;;;7.53;6.70;;;15.90;1.00;;;;;;6361378;22;20409;-82
2022/07/23 06:17:01;;;;;;;7.80;6.30;;;16.00;1.00;;;;;;6356342;22;20405;-80
2022/07/23 06:19:28;;;;;;;9.30;6.90;;;16.00;1.00;;;;;;6353565;22;20505;-80
2022/07/23 06:21:55;;;;;;;10.33;7.23;;;15.90;1.00;;;;;;6353580;22;20440;-80
2022/07/23 06:24:24;;;;;;;8.80;6.57;;;16.00;1.00;;;;;;6343035;22;20420;-80
2022/07/23 06:26:52;;;;;;;9.13;7.30;;;16.10;1.00;;;;;;6354551;22;20433;-80
2022/07/23 06:29:24;;;;;;;7.47;6.23;;;16.10;1.00;;;;;;6357150;22;20448;-81
2022/07/23 06:31:54;;;;;;;7.90;6.27;;;16.10;1.00;;;;;;6352039;22;20420;-76
2022/07/23 06:34:22;;;;;;;8.20;7.30;;;16.20;1.00;;;;;;6333728;22;20418;-78
2022/07/23 06:36:52;;;;;;;7.67;6.97;;;16.10;1.00;;;;;;6332626;22;20377;-77
2022/07/23 06:39:19;;;;;;;10.43;7.20;;;16.10;1.00;;;;;;6331619;22;20389;-77
2022/07/23 06:41:46;;;;;;;8.27;7.00;;;16.10;1.00;;;;;;6347016;22;20909;-77
2022/07/23 06:44:15;;;;;;;10.37;7.47;;;16.20;1.00;;;;;;6328768;22;20510;-77
2022/07/23 06:46:42;;;;;;;10.90;7.90;;;16.20;1.00;;;;;;6331193;22;20460;-76
2022/07/23 06:49:14;;;;;;;8.63;7.10;;;16.20;1.00;;;;;;6316661;22;20441;-78
2022/07/23 06:51:41;;;;;;;13.23;7.90;;;16.30;1.00;;;;;;6334186;22;20409;-76
2022/07/23 06:54:14;;;;;;;8.20;7.43;;;16.30;1.00;;;;;;6334550;22;20756;-79
2022/07/23 06:56:42;;;;;;;8.27;7.50;;;16.30;1.00;;;;;;6348600;22;20749;-82
2022/07/23 06:59:13;;;;;;;10.63;7.70;;;16.30;1.00;;;;;;6357182;22;20409;-79
2022/07/23 07:01:40;;;;;;;8.57;7.77;;;16.30;1.00;;;;;;6352019;22;20460;-79
2022/07/23 07:04:07;;;;;;;10.17;7.50;;;16.30;1.00;;;;;;6344886;22;20421;-82
2022/07/23 07:06:36;;;;;;;7.93;7.13;;;16.30;1.00;;;;;;6360749;22;20397;-80
2022/07/23 07:09:03;;;;;;;10.00;7.83;;;16.30;1.00;;;;;;6347476;22;20413;-79
2022/07/23 07:11:35;;;;;;;9.67;8.13;;;16.30;1.00;;;;;;6336563;22;20421;-79
2022/07/23 07:14:04;;;;;;;8.80;7.23;;;16.30;1.00;;;;;;6358113;22;20445;-80
2022/07/23 07:16:34;;;;;;;8.17;6.90;;;16.20;1.00;;;;;;6353818;22;20550;-78
2022/07/23 07:19:01;;;;;;;7.70;6.90;;;16.20;1.00;;;;;;6336447;22;20377;-80
2022/07/23 07:21:33;;;;;;;9.67;6.83;;;16.20;1.00;;;;;;6349977;22;20960;-79
2022/07/23 07:24:01;;;;;;;7.03;6.27;;;16.30;1.00;;;;;;6345507;22;20427;-80
2022/07/23 07:26:31;;;;;;;7.27;6.67;;;16.30;1.00;;;;;;6330441;22;20431;-79
2022/07/23 07:28:58;;;;;;;8.70;6.03;;;16.40;1.00;;;;;;6353714;22;20390;-78
2022/07/23 07:31:25;;;;;;;8.30;7.50;;;16.30;1.00;;;;;;6350964;22;20413;-76
2022/07/23 07:33:56;;;;;;;9.03;6.30;;;16.30;1.00;;;;;;6353374;22;20409;-79
2022/07/23 07:36:23;;;;;;;7.30;6.27;;;16.30;1.00;;;;;;6355943;22;20412;-79
2022/07/23 07:38:50;;;;;;;5.83;5.23;;;16.30;1.00;;;;;;6354814;22;20417;-77
2022/07/23 07:41:23;;;;;;;6.53;5.93;;;16.40;1.00;;;;;;6322715;22;20448;-77
2022/07/23 07:43:55;;;;;;;9.20;6.70;;;16.50;1.00;;;;;;6343333;22;20397;-76
2022/07/23 07:46:23;;;;;;;7.00;6.30;;;16.60;1.00;;;;;;6352970;22;20768;-78
2022/07/23 07:48:52;;;;;;;7.70;6.30;;;16.80;1.00;;;;;;6354821;22;20452;-76
2022/07/23 07:51:19;;;;;;;8.37;6.73;;;16.90;1.00;;;;;;6353264;22;20416;-79
2022/07/23 07:53:46;;;;;;;7.90;7.13;;;17.00;1.00;;;;;;6357158;22;20413;-81
2022/07/23 07:56:17;;;;;;;7.40;6.70;;;17.20;1.00;;;;;;6350406;22;20453;-81
2022/07/23 07:58:44;;;;;;;9.20;7.30;;;17.20;1.00;;;;;;6361519;22;20496;-80
2022/07/23 08:01:15;;;;;;;9.27;7.00;;;17.20;1.00;;;;;;6356775;22;20469;-79
2022/07/23 08:03:46;;;;;;;11.27;7.50;;;17.20;1.00;;;;;;6357889;22;20474;-79
2022/07/23 08:06:13;;;;;;;7.10;6.47;;;17.30;1.00;;;;;;6355424;22;20964;-78
2022/07/23 08:08:45;;;;;;;9.23;8.17;;;17.40;1.00;;;;;;6358765;22;20727;-80
2022/07/23 08:11:19;;;;;;;9.63;8.53;;;17.70;1.00;;;;;;6359831;22;20471;-81
2022/07/23 08:13:46;;;;;;;8.13;7.33;;;17.90;1.00;;;;;;6336814;22;20451;-83
2022/07/23 08:16:15;;;;;;;10.20;8.00;;;18.00;1.00;;;;;;6360878;22;20896;-83
2022/07/23 08:18:42;;;;;;;8.83;7.87;;;18.10;1.00;;;;;;6351957;22;20467;-79
2022/07/23 08:21:14;;;;;;;9.37;8.07;;;18.30;1.00;;;;;;6338335;22;20424;-79
2022/07/23 08:23:41;;;;;;;11.70;7.70;;;18.50;1.00;;;;;;6355929;22;20381;-77
2022/07/23 08:26:08;;;;;;;10.10;9.10;;;18.90;1.00;;;;;;6346410;22;20486;-80
2022/07/23 08:28:37;;;;;;;11.00;7.87;;;19.30;1.00;;;;;;6353365;22;20405;-78
2022/07/23 08:31:05;;;;;;;7.70;6.80;;;19.50;1.00;;;;;;6354198;22;20421;-83
2022/07/23 08:33:35;;;;;;;9.80;6.67;;;19.70;1.00;;;;;;6347251;22;20416;-77
2022/07/23 08:36:03;;;;;;;7.77;7.03;;;19.90;1.00;;;;;;6338952;22;20425;-77
2022/07/23 08:38:35;;;;;;;7.80;7.10;;;20.20;1.00;;;;;;6359275;22;20386;-76
2022/07/23 08:41:14;;;;;;;8.80;7.27;;;20.50;1.00;;;;;;6319865;22;20393;-82
2022/07/23 08:43:43;;;;;;;9.10;8.20;;;20.80;1.00;;;;;;6358116;22;20428;-79
2022/07/23 08:46:15;;;;;;;7.83;6.27;;;20.90;1.00;;;;;;6357284;22;20401;-80
2022/07/23 08:48:42;;;;;;;12.90;6.37;;;20.90;1.00;;;;;;6352872;22;20497;-80
2022/07/23 08:51:11;;;;;;;8.30;5.90;;;21.00;1.00;;;;;;6349204;22;20397;-77
2022/07/23 08:53:41;;;;;;;8.13;6.23;;;20.80;1.00;;;;;;6337091;22;20445;-77
2022/07/23 08:56:14;;;;;;;10.67;6.60;;;20.90;1.00;;;;;;6337558;22;20424;-80
2022/07/23 08:58:43;;;;;;;6.30;5.40;;;21.00;1.00;;;;;;6350383;22;20390;-82
2022/07/23 09:01:15;;;;;;;6.90;5.37;;;21.10;1.00;;;;;;6311372;22;20413;-80
2022/07/23 09:03:44;;;;;;;7.20;6.10;;;21.20;1.00;;;;;;6355237;22;20448;-79
2022/07/23 09:06:17;;;;;;;8.17;5.57;;;21.40;1.00;;;;;;6345674;22;20540;-78
2022/07/23 09:08:46;;;;;;;7.90;5.30;;;21.40;1.00;;;;;;6355318;22;20431;-80
2022/07/23 09:11:17;;;;;;;7.40;4.90;;;21.50;1.00;;;;;;6355551;22;20381;-84
2022/07/23 09:13:58;;;;;;;7.20;6.30;;;21.60;1.00;;;;;;6357881;22;20437;-79
2022/07/23 09:16:26;;;;;;;8.70;5.70;;;21.60;1.00;;;;;;6335456;22;20428;-79
2022/07/23 09:18:57;;;;;;;7.90;5.47;;;21.70;1.00;;;;;;6329023;22;20385;-77
2022/07/23 09:21:28;;;;;;;6.17;4.83;;;21.80;1.00;;;;;;6352090;22;20496;-76
2022/07/23 09:23:58;;;;;;;6.93;5.37;;;21.70;1.00;;;;;;6349312;22;20396;-78
2022/07/23 09:26:36;;;;;;;8.40;5.93;;;21.70;1.00;;;;;;6352009;22;20416;-77
2022/07/23 09:29:08;;;;;;;8.70;5.07;;;21.80;1.00;;;;;;6351743;22;20403;-77
2022/07/23 09:31:44;;;;;;;8.47;5.17;;;22.10;1.00;;;;;;6349204;22;20467;-78
2022/07/23 09:34:17;;;;;;;6.20;5.60;;;22.60;1.00;;;;;;6351760;22;20456;-80
2022/07/23 09:36:44;;;;;;;4.63;4.20;;;22.80;1.00;;;;;;6350051;22;20429;-80
2022/07/23 09:39:17;;;;;;;6.23;4.70;;;23.10;1.00;;;;;;6348156;22;20385;-78
2022/07/23 09:41:46;;;;;;;9.23;8.23;;;23.20;1.00;;;;;;6327915;22;20517;-78
2022/07/23 09:44:20;;;;;;;10.40;4.90;;;23.30;1.00;;;;;;6353585;22;20400;-82
2022/07/23 09:46:51;;;;;;;6.30;4.90;;;23.40;1.00;;;;;;6359559;22;20453;-83
2022/07/23 09:49:20;;;;;;;5.50;4.60;;;23.50;1.00;;;;;;6352991;22;20491;-76
2022/07/23 09:51:54;;;;;;;10.80;5.00;;;23.60;1.00;;;;;;6354455;22;20444;-79
2022/07/23 09:54:47;;;;;;;6.50;4.07;;;24.20;1.00;;;;;;6350159;22;20395;-81
2022/07/23 09:57:16;;;;;;;6.23;4.70;;;25.10;1.00;;;;;;6353010;22;20433;-83
2022/07/23 10:00:06;;;;;;;5.30;4.33;;;25.70;1.00;;;;;;6344001;22;20403;-82
2022/07/23 10:02:36;;;;;;;6.30;4.37;;;25.80;1.00;;;;;;6341572;22;20840;-82
2022/07/23 10:05:08;;;;;;;6.03;3.90;;;26.60;1.00;;;;;;6306621;22;20397;-79
2022/07/23 10:07:47;;;;;;;7.40;4.50;;;28.30;1.00;;;;;;6326323;22;20431;-79
2022/07/23 10:10:24;;;;;;;8.40;5.07;;;29.80;1.00;;;;;;6339024;22;20482;-78
2022/07/23 10:15:43;;;;;;;8.93;4.97;;;30.50;1.00;;;;;;6355031;22;20932;-81
2022/07/23 10:18:15;;;;;;;8.10;4.77;;;31.30;1.00;;;;;;6348513;22;20404;-78
2022/07/23 10:20:42;;;;;;;8.43;5.70;;;31.00;1.00;;;;;;6355751;22;20433;-78
2022/07/23 10:23:17;;;;;;;7.80;5.07;;;30.90;1.00;;;;;;6348807;22;20410;-78
2022/07/23 10:25:57;;;;;;;9.60;6.00;;;30.30;1.00;;;;;;6304556;22;20773;-75
2022/07/23 10:28:43;;;;;;;9.93;5.13;;;29.60;1.00;;;;;;6319886;22;20471;-82
2022/07/23 10:31:37;;;;;;;8.80;4.43;;;29.30;1.00;;;;;;6330615;22;20382;-82
2022/07/23 10:34:15;;;;;;;7.80;4.57;;;29.20;1.00;;;;;;6322133;22;20424;-78
2022/07/23 10:36:58;;;;;;;8.13;5.47;;;29.00;1.00;;;;;;6351070;22;20504;-85
2022/07/23 10:39:33;;;;;;;7.67;3.97;;;29.70;1.00;;;;;;6353052;22;20430;-80
2022/07/23 10:42:15;;;;;;;9.73;4.10;;;30.80;1.00;;;;;;6351258;22;20415;-78
2022/07/23 10:44:43;;;;;;;8.67;4.10;;;31.10;1.00;;;;;;6352699;22;20409;-78
2022/07/23 10:47:40;;;;;;;7.30;5.20;;;30.40;1.00;;;;;;6332741;22;20401;-77
2022/07/23 10:50:21;;;;;;;6.20;3.80;;;29.70;1.00;;;;;;6313447;22;20394;-79
2022/07/23 10:53:21;;;;;;;7.20;3.80;;;30.20;1.00;;;;;;6346870;22;20405;-80
2022/07/23 10:55:55;;;;;;;6.80;3.40;;;30.50;1.00;;;;;;6341758;22;20905;-80
2022/07/23 10:58:43;;;;;;;7.77;4.20;;;30.30;1.00;;;;;;6344097;22;20491;-81
2022/07/23 11:01:44;;;;;;;8.57;4.20;;;30.50;1.00;;;;;;6349860;22;20433;-78
2022/07/23 11:04:15;;;;;;;7.37;4.00;;;30.80;1.00;;;;;;6348684;22;20390;-80
2022/07/23 11:07:07;;;;;;;7.50;3.60;;;31.90;1.00;;;;;;6345598;22;20429;-80
2022/07/23 11:09:42;;;;;;;9.50;4.30;;;32.30;1.00;;;;;;6336402;22;20412;-79
2022/07/23 11:12:36;;;;;;;10.47;3.97;;;32.60;1.00;;;;;;6351309;22;20487;-79
2022/07/23 11:15:08;;;;;;;9.20;4.00;;;33.70;1.00;;;;;;6349721;22;20421;-78
2022/07/23 11:17:38;;;;;;;9.20;4.20;;;34.40;1.00;;;;;;6343850;22;20634;-80
2022/07/23 11:20:22;;;;;;;9.20;3.93;;;34.00;1.00;;;;;;6354510;22;20467;-80
2022/07/23 11:22:55;;;;;;;9.77;4.77;;;33.10;1.00;;;;;;6351418;22;20451;-80
2022/07/23 11:25:37;;;;;;;7.60;3.43;;;33.50;1.00;;;;;;6352399;22;20420;-83
2022/07/23 11:28:16;;;;;;;9.17;3.43;;;33.50;1.00;;;;;;6349659;22;20421;-80
2022/07/23 11:30:45;;;;;;;6.80;3.60;;;34.30;1.00;;;;;;6354102;22;20449;-79
2022/07/23 11:33:22;;;;;;;9.23;3.63;;;34.60;1.00;;;;;;6356458;22;20409;-80
2022/07/23 11:36:05;;;;;;;8.10;3.13;;;34.90;1.00;;;;;;6352962;22;20432;-79
2022/07/23 11:38:34;;;;;;;10.10;3.50;;;35.10;1.00;;;;;;6339699;22;20420;-80
2022/07/23 11:41:05;;;;;;;6.57;3.20;;;35.90;1.00;;;;;;6314754;22;20423;-84
2022/07/23 11:43:41;;;;;;;8.10;3.70;;;36.60;1.00;;;;;;6317274;22;20425;-80
2022/07/23 11:46:15;;;;;;;7.80;4.03;;;37.00;1.00;;;;;;6323784;22;20393;-79
2022/07/23 11:48:44;;;;;;;7.23;3.70;;;36.40;1.00;;;;;;6355709;22;20439;-80
2022/07/23 11:51:26;;;;;;;8.17;4.30;;;36.30;1.00;;;;;;6353288;22;20405;-79
2022/07/23 11:53:53;;;;;;;8.33;4.10;;;36.90;1.00;;;;;;6322053;22;20425;-77
2022/07/23 11:56:20;;;;;;;8.53;4.23;;;36.80;1.00;;;;;;6348985;22;20416;-77
2022/07/23 11:58:57;;;;;;;7.73;3.53;;;36.10;1.00;;;;;;6348331;22;20849;-77
2022/07/23 12:01:24;;;;;;;10.10;4.60;;;34.90;1.00;;;;;;6347633;22;20405;-77
2022/07/23 12:03:53;;;;;;;9.73;4.43;;;33.20;1.00;;;;;;6348810;22;20424;-76
2022/07/23 12:06:20;;;;;;;9.43;4.83;;;32.40;1.00;;;;;;6347536;22;20484;-77
2022/07/23 12:08:47;;;;;;;8.00;4.63;;;32.20;1.00;;;;;;6349461;22;20492;-77
2022/07/23 12:11:14;;;;;;;9.07;4.50;;;32.40;1.00;;;;;;6348092;22;20374;-77
2022/07/23 12:13:43;;;;;;;8.00;4.30;;;31.60;1.00;;;;;;6349266;22;21140;-77
2022/07/23 12:16:10;;;;;;;7.87;4.77;;;30.80;1.00;;;;;;6347661;22;20926;-79
2022/07/23 12:18:37;;;;;;;8.53;5.27;;;30.20;1.00;;;;;;6348744;22;20445;-77
2022/07/23 12:21:06;;;;;;;8.17;4.03;;;29.50;1.00;;;;;;6349003;22;20400;-77
2022/07/23 12:23:33;;;;;;;7.80;4.23;;;29.00;1.00;;;;;;6349829;22;20404;-77
2022/07/23 12:26:02;;;;;;;8.07;5.17;;;28.50;1.00;;;;;;6355109;22;20420;-80
2022/07/23 12:28:37;;;;;;;10.83;5.20;;;28.10;1.00;;;;;;6352850;22;20397;-79
2022/07/23 12:31:04;;;;;;;7.90;5.10;;;27.70;1.00;;;;;;6357778;22;21153;-80
2022/07/23 12:33:32;;;;;;;10.87;5.03;;;27.50;1.00;;;;;;6354603;22;20960;-80
2022/07/23 12:36:01;;;;;;;9.33;4.40;;;27.80;1.00;;;;;;6348794;22;20484;-79
2022/07/23 12:38:38;;;;;;;7.60;4.33;;;29.20;1.00;;;;;;6349891;22;20560;-80
2022/07/23 12:41:05;;;;;;;9.97;4.50;;;30.20;1.00;;;;;;6349791;22;20409;-79
2022/07/23 12:43:35;;;;;;;10.33;5.10;;;29.90;1.00;;;;;;6350907;22;20493;-80
2022/07/23 12:46:04;;;;;;;6.47;4.00;;;29.80;1.00;;;;;;6349658;22;20902;-80
2022/07/23 12:48:33;;;;;;;9.20;4.30;;;29.70;1.00;;;;;;6349873;22;20444;-79
2022/07/23 12:51:03;;;;;;;8.77;4.73;;;30.00;1.00;;;;;;6350320;22;20479;-79
2022/07/23 12:53:32;;;;;;;9.73;5.20;;;30.00;1.00;;;;;;6350853;22;20425;-79
2022/07/23 12:56:05;;;;;;;8.20;4.77;;;29.60;1.00;;;;;;6348808;22;20413;-80
2022/07/23 12:58:42;;;;;;;8.10;4.33;;;29.30;1.00;;;;;;6349190;22;20425;-80
2022/07/23 13:01:09;;;;;;;10.13;5.30;;;29.80;1.00;;;;;;6348693;22;20492;-80
2022/07/23 13:03:39;;;;;;;7.20;4.10;;;29.30;1.00;;;;;;6350606;22;20508;-80
2022/07/23 13:06:09;;;;;;;7.77;4.57;;;28.90;1.00;;;;;;6348915;22;20768;-79
2022/07/23 13:08:40;;;;;;;6.90;4.40;;;28.70;1.00;;;;;;6351695;22;20417;-79
2022/07/23 13:11:07;;;;;;;8.57;5.57;;;28.40;1.00;;;;;;6349226;22;20418;-80
2022/07/23 13:13:37;;;;;;;8.00;5.50;;;27.90;1.00;;;;;;6349876;22;20443;-79
2022/07/23 13:16:04;;;;;;;8.33;4.93;;;27.90;1.00;;;;;;6349108;22;20409;-80